Time;durP1;ratioP1;P1;durP2;ratioP2;P2;SDS_P1;SDS_P2;PMS_P1;PMS_P2;Temp;Humidity;BMP_temperature;BMP_pressure;BME280_temperature;BME280_humidity;BME280_pressure;Samples;Min_cycle;Max_cycle;Signal;HPM_P1;HPM_P2
2022/09/24 00:00:23;;;;;;;4.40;4.00;;;;;;;13.08;66.28;96424.41;6184062;23;20012;-83
2022/09/24 00:54:56;;;;;;;6.68;4.30;;;;;;;12.92;66.66;96368.00;6174380;22;20024;-80
2022/09/24 00:58:06;;;;;;;6.07;5.45;;;;;;;12.92;66.98;96358.38;6221378;22;20001;-79
2022/09/24 01:01:18;;;;;;;6.45;5.50;;;;;;;12.94;66.91;96350.28;6156832;23;20016;-81
2022/09/24 01:08:06;;;;;;;9.40;5.38;;;;;;;12.91;66.64;96345.47;6191267;23;20009;-81
2022/09/24 01:18:04;;;;;;;8.13;6.20;;;;;;;12.92;67.07;96347.06;6192052;23;20033;-83
2022/09/24 01:21:27;;;;;;;7.57;6.20;;;;;;;12.89;67.11;96343.03;6192132;23;20013;-83
2022/09/24 01:28:15;;;;;;;6.85;5.88;;;;;;;12.82;67.11;96341.44;6149262;23;20026;-78
2022/09/24 01:31:32;;;;;;;7.63;5.85;;;;;;;12.77;67.33;96342.84;6149311;23;20009;-79
2022/09/24 01:34:37;;;;;;;9.55;6.05;;;;;;;12.73;67.33;96331.19;6185003;23;20031;-78
2022/09/24 01:37:59;;;;;;;6.68;5.43;;;;;;;12.71;67.64;96327.97;6190973;23;20005;-80
2022/09/24 01:41:26;;;;;;;10.00;6.13;;;;;;;12.70;67.94;96322.91;6188369;23;20029;-79
2022/09/24 01:48:23;;;;;;;9.80;6.22;;;;;;;12.68;67.94;96304.81;6165709;23;20052;-78
2022/09/24 01:55:25;;;;;;;8.80;6.35;;;;;;;12.67;68.17;96307.63;6065667;23;20019;-80
2022/09/24 02:01:31;;;;;;;9.68;6.63;;;;;;;12.64;68.08;96298.38;6213172;23;20024;-81
2022/09/24 02:04:06;;;;;;;7.32;5.97;;;;;;;12.66;68.31;96292.91;6215792;23;20099;-81
2022/09/24 02:06:40;;;;;;;8.32;6.95;;;;;;;12.64;68.31;96295.75;6215817;23;20099;-83
2022/09/24 02:09:29;;;;;;;7.45;6.45;;;;;;;12.62;68.37;96299.59;6215647;23;20024;-81
2022/09/24 02:12:01;;;;;;;8.45;7.03;;;;;;;12.56;68.29;96296.75;6214614;23;20460;-81
2022/09/24 02:14:32;;;;;;;8.93;5.72;;;;;;;12.55;68.67;96283.84;6216169;23;20025;-81
2022/09/24 02:17:03;;;;;;;7.95;5.43;;;;;;;12.58;68.72;96288.72;6216046;23;20029;-81
2022/09/24 02:19:36;;;;;;;8.50;6.45;;;;;;;12.59;68.34;96290.31;6215500;23;20017;-81
2022/09/24 02:22:08;;;;;;;7.95;6.60;;;;;;;12.55;68.39;96294.31;6215181;23;20356;-80
2022/09/24 02:24:45;;;;;;;10.18;6.22;;;;;;;12.52;68.42;96294.75;6215246;23;20023;-81
2022/09/24 02:27:13;;;;;;;7.07;6.38;;;;;;;12.49;68.25;96295.16;6215634;23;20368;-81
2022/09/24 02:29:41;;;;;;;8.93;6.78;;;;;;;12.45;68.57;96288.72;6215843;23;20024;-81
2022/09/24 02:32:12;;;;;;;8.80;6.95;;;;;;;12.42;68.53;96289.91;6214468;23;20016;-81
2022/09/24 02:34:45;;;;;;;9.10;6.65;;;;;;;12.39;68.74;96281.66;6215761;23;20031;-80
2022/09/24 02:37:14;;;;;;;;;;;;;;;12.37;68.39;96281.84;6216169;23;20039;-81
2022/09/24 02:39:42;;;;;;;7.55;5.97;;;;;;;12.28;68.35;96281.25;6215253;23;19915;-81
2022/09/24 02:42:14;;;;;;;8.57;6.75;;;;;;;12.24;69.03;96287.88;6214934;23;20027;-80
2022/09/24 02:44:41;;;;;;;7.22;5.63;;;;;;;12.25;69.07;96284.28;6215540;23;20330;-81
2022/09/24 02:47:09;;;;;;;6.70;5.60;;;;;;;12.28;69.06;96291.69;6215540;23;20047;-80
2022/09/24 02:49:36;;;;;;;6.82;6.13;;;;;;;12.29;68.87;96285.47;6215211;23;20016;-81
2022/09/24 02:52:04;;;;;;;8.65;7.07;;;;;;;12.30;68.62;96275.81;6214666;23;20021;-81
2022/09/24 02:54:33;;;;;;;6.07;5.47;;;;;;;12.31;69.44;96275.63;6214892;23;20027;-81
2022/09/24 02:57:00;;;;;;;6.97;6.28;;;;;;;12.35;68.81;96283.84;6215524;23;20056;-81
2022/09/24 02:59:28;;;;;;;7.68;6.80;;;;;;;12.33;68.66;96286.69;6224374;23;20076;-81
2022/09/24 03:01:55;;;;;;;6.75;5.53;;;;;;;12.36;69.24;96286.28;6237026;23;20075;-81
2022/09/24 03:04:24;;;;;;;6.40;5.68;;;;;;;12.41;69.29;96284.88;6226833;23;20079;-81
2022/09/24 03:06:51;;;;;;;7.65;5.93;;;;;;;12.46;69.07;96285.06;6217504;23;20517;-81
2022/09/24 03:09:19;;;;;;;6.25;5.63;;;;;;;12.50;68.72;96274.00;6215635;23;20016;-81
2022/09/24 03:11:49;;;;;;;7.32;5.55;;;;;;;12.54;68.67;96279.66;6214820;23;20024;-81
2022/09/24 03:14:16;;;;;;;10.00;6.38;;;;;;;12.56;68.09;96288.91;6215360;23;20021;-81
2022/09/24 03:16:44;;;;;;;8.15;6.40;;;;;;;12.57;67.76;96301.00;6215380;23;20027;-81
2022/09/24 03:19:11;;;;;;;8.10;5.60;;;;;;;12.58;68.08;96294.75;6214911;23;20024;-81
2022/09/24 03:21:39;;;;;;;5.88;5.22;;;;;;;12.62;68.06;96296.97;6214372;23;20021;-81
2022/09/24 03:24:06;;;;;;;9.60;6.10;;;;;;;12.62;67.72;96295.16;6214970;23;20493;-81
2022/09/24 03:26:34;;;;;;;7.78;6.43;;;;;;;12.60;67.58;96298.97;6215508;23;20099;-81
2022/09/24 03:29:03;;;;;;;9.25;6.40;;;;;;;12.58;67.58;96288.72;6215012;23;20023;-81
2022/09/24 03:31:29;;;;;;;6.07;5.50;;;;;;;12.59;67.89;96290.31;6214606;23;20032;-81
2022/09/24 03:33:57;;;;;;;8.10;6.30;;;;;;;12.63;67.67;96283.66;6214968;23;20017;-81
2022/09/24 03:36:25;;;;;;;10.60;7.10;;;;;;;12.60;67.55;96281.47;6215517;23;20027;-79
2022/09/24 03:38:55;;;;;;;7.72;6.45;;;;;;;12.58;67.60;96273.00;6215238;23;20025;-79
2022/09/24 03:41:25;;;;;;;10.40;7.30;;;;;;;12.56;67.54;96281.06;6214481;23;20020;-78
2022/09/24 03:43:52;;;;;;;10.13;8.02;;;;;;;12.55;67.62;96278.63;6214987;23;20356;-79
2022/09/24 03:46:26;;;;;;;13.35;7.82;;;;;;;12.54;67.80;96269.19;6214928;23;20021;-79
2022/09/24 03:48:54;;;;;;;7.10;5.68;;;;;;;12.54;68.30;96256.09;6215248;23;20078;-79
2022/09/24 03:51:23;;;;;;;10.30;7.65;;;;;;;12.52;67.97;96252.88;6213846;23;20099;-79
2022/09/24 03:53:50;;;;;;;11.15;8.05;;;;;;;12.48;68.12;96249.84;6216518;23;20088;-79
2022/09/24 03:56:18;;;;;;;10.23;8.18;;;;;;;12.48;68.21;96254.28;6216771;23;20021;-79
2022/09/24 03:58:46;;;;;;;11.45;8.50;;;;;;;12.49;68.20;96255.91;6215944;23;20024;-79
2022/09/24 04:01:20;;;;;;;11.00;9.35;;;;;;;12.50;68.11;96262.75;6213923;23;20353;-79
2022/09/24 04:03:50;;;;;;;10.63;8.68;;;;;;;12.48;68.17;96265.56;6214844;23;20032;-81
2022/09/24 04:06:17;;;;;;;11.23;8.63;;;;;;;12.46;68.08;96256.28;6215089;23;20051;-79
2022/09/24 04:08:52;;;;;;;17.98;9.30;;;;;;;12.42;68.19;96255.91;6215253;23;20024;-79
2022/09/24 04:11:20;;;;;;;10.18;8.27;;;;;;;12.39;68.29;96247.66;6217924;23;20063;-80
2022/09/24 04:13:47;;;;;;;10.60;8.85;;;;;;;12.38;68.35;96244.25;6229576;23;20017;-79
2022/09/24 04:16:15;;;;;;;10.60;8.32;;;;;;;12.37;68.28;96245.22;6233987;23;20448;-82
2022/09/24 04:18:43;;;;;;;12.60;9.40;;;;;;;12.34;68.38;96246.44;6232443;23;20027;-79
2022/09/24 04:21:12;;;;;;;12.70;9.60;;;;;;;12.33;68.67;96254.47;6229514;23;20391;-80
2022/09/24 04:23:39;;;;;;;12.65;9.30;;;;;;;12.34;68.45;96250.88;6228550;23;20020;-79
2022/09/24 04:26:07;;;;;;;12.30;9.45;;;;;;;12.33;68.61;96250.06;6232966;23;20021;-80
2022/09/24 04:28:34;;;;;;;12.15;10.52;;;;;;;12.35;68.50;96247.25;6239143;22;20027;-79
2022/09/24 04:31:02;;;;;;;9.82;7.65;;;;;;;12.35;68.63;96253.31;6238458;23;20021;-79
2022/09/24 04:33:30;;;;;;;12.02;9.30;;;;;;;12.35;68.54;96248.06;6232756;23;20021;-82
2022/09/24 04:35:57;;;;;;;19.33;9.57;;;;;;;12.34;68.63;96246.44;6229388;23;20016;-79
2022/09/24 04:38:32;;;;;;;14.32;9.02;;;;;;;12.34;68.64;96246.44;6231748;22;20004;-83
2022/09/24 04:41:05;;;;;;;9.52;8.55;;;;;;;12.35;68.99;96253.31;6227079;22;20017;-79
2022/09/24 04:43:33;;;;;;;10.73;8.63;;;;;;;12.38;68.77;96254.69;6218628;23;20012;-79
2022/09/24 04:46:01;;;;;;;13.25;9.63;;;;;;;12.40;68.46;96252.69;6224466;23;20518;-79
2022/09/24 04:48:29;;;;;;;11.98;9.25;;;;;;;12.40;68.36;96246.63;6222588;23;20028;-80
2022/09/24 04:50:57;;;;;;;12.00;9.43;;;;;;;12.36;68.32;96244.44;6221146;23;20067;-82
2022/09/24 04:53:26;;;;;;;13.57;9.75;;;;;;;12.34;68.46;96245.66;6224364;23;20016;-82
2022/09/24 04:55:54;;;;;;;11.65;10.25;;;;;;;12.31;68.63;96240.78;6221484;23;20020;-82
2022/09/24 04:58:23;;;;;;;11.88;10.13;;;;;;;12.27;68.89;96237.00;6217855;23;20016;-82
2022/09/24 05:00:52;;;;;;;13.07;9.90;;;;;;;12.26;68.74;96232.75;6213766;23;20012;-79
2022/09/24 05:03:20;;;;;;;12.48;9.13;;;;;;;12.24;68.87;96224.31;6216502;23;20016;-79
2022/09/24 05:05:49;;;;;;;13.75;10.07;;;;;;;12.24;68.68;96224.31;6227777;22;20029;-80
2022/09/24 05:11:11;;;;;;;13.15;11.23;;;;;;;12.19;69.07;96227.53;6227394;22;20023;-84
2022/09/24 05:13:41;;;;;;;15.07;12.05;;;;;;;12.18;69.12;96230.34;6214017;22;20009;-82
2022/09/24 05:16:09;;;;;;;14.32;10.80;;;;;;;12.15;69.27;96226.31;6209163;22;20008;-82
2022/09/24 05:18:39;;;;;;;14.63;10.65;;;;;;;12.16;69.35;96227.94;6214668;22;20021;-83
2022/09/24 05:21:09;;;;;;;15.10;11.25;;;;;;;12.16;69.30;96228.75;6215014;22;20036;-83
2022/09/24 05:23:37;;;;;;;12.40;10.45;;;;;;;12.19;69.42;96235.38;6215335;22;20021;-80
2022/09/24 05:28:52;;;;;;;13.55;10.05;;;;;;;12.24;69.45;96234.78;6213542;22;20016;-79
2022/09/24 05:31:20;;;;;;;12.48;10.27;;;;;;;12.26;69.24;96238.00;6211407;22;20056;-79
2022/09/24 05:33:48;;;;;;;13.73;9.25;;;;;;;12.27;69.26;96243.03;6208583;22;20036;-78
2022/09/24 05:36:15;;;;;;;15.23;10.32;;;;;;;12.28;69.17;96249.06;6212478;22;20013;-79
2022/09/24 05:38:43;;;;;;;12.85;9.55;;;;;;;12.29;69.32;96251.47;6213173;22;20040;-79
2022/09/24 05:41:11;;;;;;;14.38;9.27;;;;;;;12.28;69.10;96251.69;6214351;22;20009;-80
2022/09/24 05:43:39;;;;;;;10.90;9.65;;;;;;;12.30;69.28;96257.50;6214848;22;20029;-79
2022/09/24 05:46:09;;;;;;;9.75;7.68;;;;;;;12.32;69.44;96258.13;6214043;22;20040;-80
2022/09/24 05:48:37;;;;;;;11.95;8.85;;;;;;;12.36;69.11;96256.72;6209520;22;20001;-81
2022/09/24 05:51:06;;;;;;;11.05;8.82;;;;;;;12.40;68.82;96254.47;6203166;23;20438;-79
2022/09/24 05:53:35;;;;;;;10.77;9.40;;;;;;;12.40;68.52;96255.31;6197508;23;20017;-81
2022/09/24 05:56:03;;;;;;;9.60;7.90;;;;;;;12.41;68.99;96248.25;6191786;23;20044;-77
2022/09/24 05:58:32;;;;;;;11.20;8.40;;;;;;;12.43;68.63;96259.31;6213167;22;20028;-82
2022/09/24 06:01:01;;;;;;;10.18;8.48;;;;;;;12.46;68.87;96256.28;6210823;22;20032;-84
2022/09/24 06:03:34;;;;;;;9.55;8.25;;;;;;;12.50;69.93;96266.16;6209384;22;20019;-81
2022/09/24 06:06:04;;;;;;;9.25;7.82;;;;;;;12.54;68.91;96274.41;6208347;22;20039;-80
2022/09/24 06:08:35;;;;;;;9.45;8.50;;;;;;;12.58;69.37;96273.00;6207726;22;20061;-79
2022/09/24 06:11:07;;;;;;;9.43;7.72;;;;;;;12.63;70.37;96272.41;6195574;23;20021;-80
2022/09/24 06:13:36;;;;;;;;;;;;;;;12.65;69.66;96268.56;6200265;23;20021;-80
2022/09/24 06:22:17;;;;;;;9.20;7.95;;;;;;;12.73;68.52;96268.38;6193494;22;20517;-80
2022/09/24 06:24:50;;;;;;;12.00;8.15;;;;;;;12.80;68.92;96278.03;6207265;23;20024;-80
2022/09/24 06:27:20;;;;;;;29.08;19.13;;;;;;;12.85;68.42;96276.38;6199931;23;20069;-81
2022/09/24 06:29:49;;;;;;;37.50;25.83;;;;;;;12.89;68.12;96271.56;6210539;22;20017;-83
2022/09/24 06:35:07;;;;;;;10.95;9.23;;;;;;;12.93;67.64;96270.16;6195560;23;20075;-80
2022/09/24 06:37:35;;;;;;;10.88;9.68;;;;;;;12.95;67.66;96268.13;6186958;23;20120;-80
2022/09/24 06:40:05;;;;;;;10.38;9.02;;;;;;;12.97;67.63;96271.34;6193404;22;20652;-78
2022/09/24 06:42:33;;;;;;;13.30;9.88;;;;;;;12.97;67.30;96271.34;6188942;23;20021;-81
2022/09/24 06:47:36;;;;;;;11.82;9.50;;;;;;;12.96;68.05;96270.53;6186807;22;20361;-81
2022/09/24 06:50:05;;;;;;;15.18;10.32;;;;;;;13.02;68.45;96274.16;6195996;22;20008;-83
2022/09/24 06:52:33;;;;;;;15.05;10.88;;;;;;;13.09;68.95;96277.56;6187937;23;20025;-80
2022/09/24 06:55:01;;;;;;;14.75;10.95;;;;;;;13.15;68.46;96274.13;6185820;23;20017;-78
2022/09/24 06:57:30;;;;;;;13.23;9.68;;;;;;;13.19;68.59;96280.56;6185213;23;20029;-80
2022/09/24 06:59:58;;;;;;;13.95;9.68;;;;;;;13.23;68.10;96282.75;6185122;23;20021;-80
2022/09/24 07:02:25;;;;;;;9.52;8.50;;;;;;;13.26;67.79;96279.75;6185558;23;20013;-80
2022/09/24 07:04:56;;;;;;;10.20;7.80;;;;;;;13.27;67.81;96276.09;6188209;23;20013;-82
2022/09/24 07:07:34;;;;;;;10.27;8.52;;;;;;;13.32;67.84;96284.19;6159552;23;20090;-79
2022/09/24 07:10:05;;;;;;;12.75;8.98;;;;;;;13.34;67.79;96282.16;6184471;23;20028;-79
2022/09/24 07:12:34;;;;;;;13.38;10.05;;;;;;;13.37;67.60;96281.75;6185358;23;20017;-79
2022/09/24 07:15:03;;;;;;;11.75;8.30;;;;;;;13.42;67.70;96283.75;6186245;23;20028;-80
2022/09/24 07:17:31;;;;;;;10.75;8.18;;;;;;;13.47;67.66;96283.91;6184711;23;20016;-79
2022/09/24 07:20:00;;;;;;;11.35;7.82;;;;;;;13.55;67.27;96284.47;6184488;23;20507;-79
2022/09/24 07:22:28;;;;;;;12.10;7.85;;;;;;;13.63;67.35;96285.28;6188513;23;20025;-80
2022/09/24 07:24:57;;;;;;;10.07;7.57;;;;;;;13.69;67.06;96290.50;6189328;23;20024;-81
2022/09/24 07:27:25;;;;;;;10.25;7.32;;;;;;;13.75;67.19;96291.47;6187871;23;20353;-81
2022/09/24 07:29:53;;;;;;;11.55;9.23;;;;;;;13.82;67.15;96297.50;6186541;23;20067;-79
2022/09/24 07:32:21;;;;;;;12.38;8.80;;;;;;;13.88;66.97;96296.63;6186272;23;20017;-80
2022/09/24 07:34:55;;;;;;;17.25;10.40;;;;;;;13.94;66.69;96300.25;6194779;23;20052;-81
2022/09/24 07:37:23;;;;;;;12.98;8.38;;;;;;;13.97;66.58;96298.03;6187138;23;20029;-80
2022/09/24 07:39:51;;;;;;;9.85;8.27;;;;;;;14.00;66.74;96300.22;6184425;23;20096;-78
2022/09/24 07:42:20;;;;;;;10.35;7.85;;;;;;;14.06;66.89;96305.63;6184424;23;20027;-79
2022/09/24 07:44:48;;;;;;;8.25;7.45;;;;;;;14.12;66.42;96299.53;6184499;23;20020;-79
2022/09/24 07:47:15;;;;;;;10.23;7.47;;;;;;;14.18;66.34;96304.75;6186538;23;20017;-80
2022/09/24 07:49:43;;;;;;;8.52;7.43;;;;;;;14.24;66.07;96310.97;6186818;23;20405;-80
2022/09/24 07:52:11;;;;;;;11.13;8.05;;;;;;;14.29;65.72;96305.88;6184258;23;20053;-79
2022/09/24 07:54:38;;;;;;;11.32;8.18;;;;;;;14.32;65.53;96307.28;6184819;23;20020;-79
2022/09/24 07:57:10;;;;;;;10.98;7.40;;;;;;;14.37;65.46;96316.13;6184730;23;20028;-79
2022/09/24 07:59:40;;;;;;;8.90;8.00;;;;;;;14.44;65.19;96316.09;6185125;23;20025;-79
2022/09/24 08:02:15;;;;;;;14.63;8.25;;;;;;;14.49;64.73;96315.44;6184783;23;20097;-79
2022/09/24 08:38:21;;;;;;;10.52;7.53;;;;;;;14.91;66.58;96328.88;6214275;22;20100;-80
2022/09/24 08:47:25;;;;;;;9.73;6.10;;;;;;;15.04;66.63;96341.88;6208451;22;20005;-82
2022/09/24 08:50:16;;;;;;;7.63;5.90;;;;;;;15.09;66.80;96336.78;6188328;23;20025;-82
2022/09/24 08:53:19;;;;;;;6.22;5.63;;;;;;;15.18;67.36;96346.00;6190100;23;20072;-83
2022/09/24 09:10:43;;;;;;;8.23;6.50;;;;;;;15.42;68.10;96367.19;5996747;23;20031;-83
2022/09/24 09:28:01;;;;;;;8.15;6.05;;;;;;;15.63;67.90;96360.69;6228787;23;20027;-81
2022/09/24 09:33:39;;;;;;;7.80;6.13;;;;;;;15.77;68.02;96359.56;6220594;23;20404;-80
2022/09/24 09:39:49;;;;;;;6.68;5.80;;;;;;;16.08;67.55;96359.59;6196891;23;20503;-81
2022/09/24 09:51:44;;;;;;;7.18;4.90;;;;;;;16.33;66.49;96357.63;6201705;23;20080;-81
2022/09/24 11:28:21;;;;;;;2.67;2.47;;;;;;;17.02;63.32;96347.50;6256778;23;20103;-81
2022/09/24 11:46:12;;;;;;;3.55;2.50;;;;;;;17.29;62.99;96339.13;5943169;24;20062;-83
2022/09/24 12:00:12;;;;;;;3.15;2.80;;;;;;;17.29;63.29;96339.13;6019938;23;20052;-82
2022/09/24 12:02:46;;;;;;;4.35;3.08;;;;;;;17.29;63.33;96329.41;6008367;23;20030;-82
2022/09/24 12:15:24;;;;;;;4.18;3.40;;;;;;;17.58;62.61;96332.09;6209528;22;20338;-81
2022/09/24 12:18:03;;;;;;;3.67;3.00;;;;;;;17.71;62.32;96321.28;6206707;23;20032;-81
2022/09/24 12:21:05;;;;;;;2.80;2.60;;;;;;;17.83;61.93;96323.13;6203295;23;20023;-80
2022/09/24 12:23:39;;;;;;;3.58;2.63;;;;;;;17.92;62.14;96316.44;6192976;23;20033;-80
2022/09/24 12:26:15;;;;;;;3.10;2.67;;;;;;;17.97;61.27;96319.16;6208398;22;20013;-79
2022/09/24 12:35:20;;;;;;;2.72;2.53;;;;;;;18.28;60.54;96315.25;6201907;23;20473;-81
2022/09/24 12:38:03;;;;;;;2.60;2.40;;;;;;;18.31;60.47;96314.78;6196508;23;20021;-81
2022/09/24 12:44:27;;;;;;;2.33;2.13;;;;;;;18.28;60.87;96309.19;6205555;23;20477;-83
2022/09/24 12:50:46;;;;;;;4.05;2.70;;;;;;;18.26;61.55;96305.97;6057180;23;20491;-83
2022/09/24 12:54:08;;;;;;;3.05;2.50;;;;;;;18.24;61.31;96297.50;6047335;23;20103;-83
2022/09/24 12:56:54;;;;;;;2.95;2.20;;;;;;;18.23;61.02;96298.50;6196779;23;20041;-83
2022/09/24 12:59:47;;;;;;;3.40;2.60;;;;;;;18.21;61.83;96297.94;6195373;23;20072;-83
2022/09/24 13:02:23;;;;;;;2.85;2.63;;;;;;;18.17;61.77;96297.63;6207759;23;20083;-83
2022/09/24 13:05:17;;;;;;;4.32;2.95;;;;;;;18.14;61.09;96302.56;6174017;23;20032;-83
2022/09/24 13:08:03;;;;;;;3.78;3.30;;;;;;;18.08;61.20;96289.31;6194829;23;20021;-83
2022/09/24 13:10:59;;;;;;;3.10;2.80;;;;;;;18.01;61.05;96301.03;6114317;23;20021;-83
2022/09/24 13:13:31;;;;;;;3.42;2.70;;;;;;;17.97;61.47;96292.75;6188479;23;20021;-83
2022/09/24 13:16:09;;;;;;;2.83;2.60;;;;;;;17.94;61.71;96287.97;6189767;23;20146;-83
2022/09/24 13:18:56;;;;;;;2.95;2.55;;;;;;;17.92;62.07;96287.41;6165380;23;20021;-84
2022/09/24 13:22:02;;;;;;;3.33;3.03;;;;;;;17.94;61.79;96284.53;6191418;23;20021;-83
2022/09/24 13:24:47;;;;;;;6.07;3.25;;;;;;;17.97;61.22;96287.50;6168684;22;20016;-82
2022/09/24 15:02:35;;;;;;;6.00;5.40;;;;;;;16.71;67.70;96268.78;6198382;22;20053;-79
2022/09/24 15:05:31;;;;;;;4.85;4.05;;;;;;;16.70;68.01;96270.59;6187980;23;20549;-80
2022/09/24 15:08:27;;;;;;;4.63;4.22;;;;;;;16.68;68.28;96264.75;6154801;22;20031;-79
2022/09/24 15:11:02;;;;;;;7.40;4.55;;;;;;;16.66;67.82;96272.88;6171345;23;20049;-79
2022/09/24 15:13:32;;;;;;;3.97;3.58;;;;;;;16.64;68.15;96277.59;6163027;23;20017;-79
2022/09/24 15:16:05;;;;;;;5.65;4.40;;;;;;;16.62;68.76;96276.22;6156471;23;20024;-79
2022/09/24 15:18:35;;;;;;;5.38;4.57;;;;;;;16.58;69.27;96275.06;6164547;23;20072;-79
2022/09/24 15:21:07;;;;;;;5.10;4.22;;;;;;;16.56;69.27;96275.28;6161361;23;20069;-79
2022/09/24 15:23:35;;;;;;;6.38;4.90;;;;;;;16.53;69.30;96275.75;6162953;23;20025;-79
2022/09/24 15:26:03;;;;;;;6.18;5.55;;;;;;;16.51;69.44;96276.97;6156294;23;20100;-79
2022/09/24 15:28:32;;;;;;;5.85;5.25;;;;;;;16.46;69.80;96272.38;6165217;23;20017;-79
2022/09/24 15:31:00;;;;;;;18.60;13.30;;;;;;;16.42;69.92;96271.25;6162959;23;20469;-79
2022/09/24 15:33:28;;;;;;;10.60;8.18;;;;;;;16.39;69.98;96266.44;6163376;23;20018;-79
2022/09/24 15:35:57;;;;;;;6.78;5.88;;;;;;;16.35;70.53;96266.06;6161967;23;20025;-79
2022/09/24 15:38:25;;;;;;;5.35;4.85;;;;;;;16.33;70.61;96265.50;6161847;23;20092;-79
2022/09/24 15:40:53;;;;;;;7.07;5.03;;;;;;;16.30;70.95;96263.34;6167380;23;20045;-79
2022/09/24 15:43:23;;;;;;;5.95;4.88;;;;;;;16.26;71.25;96268.22;6165680;23;20018;-79
2022/09/24 15:45:51;;;;;;;5.45;4.80;;;;;;;16.25;71.38;96274.53;6164840;23;20017;-79
2022/09/24 15:48:19;;;;;;;7.05;5.25;;;;;;;16.25;71.57;96277.16;6175019;23;20048;-79
2022/09/24 15:50:49;;;;;;;9.50;5.75;;;;;;;16.25;71.82;96277.16;6167254;23;20048;-79
2022/09/24 15:53:22;;;;;;;9.07;5.78;;;;;;;16.26;72.06;96270.06;6161486;23;20021;-79
2022/09/24 15:55:54;;;;;;;10.20;6.22;;;;;;;16.25;72.35;96276.38;6161083;23;20336;-79
2022/09/24 15:58:23;;;;;;;;;;;;;;;16.23;72.38;96271.31;6141356;23;20037;-79
2022/09/24 16:00:51;;;;;;;7.10;5.72;;;;;;;16.19;72.16;96272.00;6165153;23;19916;-79
2022/09/24 16:03:21;;;;;;;7.93;5.90;;;;;;;16.13;72.80;96267.63;6166975;23;20027;-79
2022/09/24 16:05:49;;;;;;;5.63;5.13;;;;;;;16.11;73.02;96262.59;6162036;23;20017;-79
2022/09/24 16:08:17;;;;;;;6.57;5.97;;;;;;;16.08;72.97;96262.25;6158683;23;20022;-79
2022/09/24 16:10:46;;;;;;;9.25;6.20;;;;;;;16.03;72.95;96268.19;6159894;23;20044;-79
2022/09/24 16:13:15;;;;;;;6.82;6.05;;;;;;;15.98;73.15;96270.66;6158938;23;20017;-79
2022/09/24 16:15:43;;;;;;;8.18;6.55;;;;;;;15.95;73.25;96264.03;6165138;23;20017;-80
2022/09/24 16:18:13;;;;;;;6.07;5.55;;;;;;;15.93;73.67;96263.47;6164973;23;20012;-78
2022/09/24 16:20:44;;;;;;;11.52;7.35;;;;;;;15.92;73.97;96267.13;6159755;23;20018;-78
2022/09/24 16:23:14;;;;;;;10.85;8.32;;;;;;;15.92;74.36;96268.94;6156634;23;20032;-79
2022/09/24 16:25:42;;;;;;;7.63;6.93;;;;;;;15.91;74.63;96267.34;6155016;23;20018;-77
2022/09/24 16:28:11;;;;;;;7.90;7.10;;;;;;;15.89;74.32;96269.38;6155362;23;20029;-79
2022/09/24 16:30:38;;;;;;;5.97;5.40;;;;;;;15.88;73.96;96275.69;6155533;23;20026;-79
2022/09/24 16:33:06;;;;;;;7.18;5.47;;;;;;;15.89;73.90;96277.28;6155014;23;20084;-78
2022/09/24 16:35:33;;;;;;;7.32;5.97;;;;;;;15.86;73.82;96283.78;6155591;23;20021;-79
2022/09/24 16:38:01;;;;;;;16.02;10.73;;;;;;;15.85;73.80;96284.81;6159494;23;20481;-79
2022/09/24 16:40:28;;;;;;;29.27;16.10;;;;;;;15.80;73.78;96279.41;6172121;23;20028;-79
2022/09/24 16:42:59;;;;;;;33.70;20.20;;;;;;;15.77;74.43;96275.41;6168300;23;20350;-79
2022/09/24 16:45:28;;;;;;;35.97;19.20;;;;;;;15.77;74.49;96279.88;6157657;23;20021;-79
2022/09/24 16:47:55;;;;;;;19.08;12.93;;;;;;;15.76;74.67;96276.41;6155731;23;20088;-78
2022/09/24 16:50:23;;;;;;;11.15;8.93;;;;;;;15.76;74.44;96273.78;6153901;23;20036;-78
2022/09/24 16:52:53;;;;;;;8.10;7.30;;;;;;;15.74;74.75;96282.94;6153982;23;20013;-78
2022/09/24 16:55:22;;;;;;;8.48;7.00;;;;;;;15.73;74.81;96276.06;6154601;23;20362;-79
2022/09/24 16:57:51;;;;;;;7.13;6.40;;;;;;;15.72;74.73;96280.53;6156546;23;20020;-79
2022/09/24 17:00:19;;;;;;;9.43;6.68;;;;;;;15.70;74.99;96284.38;6159261;23;20022;-79
2022/09/24 17:02:47;;;;;;;6.50;5.60;;;;;;;15.66;74.98;96284.81;6155835;23;20076;-78
2022/09/24 17:05:15;;;;;;;8.23;5.95;;;;;;;15.62;75.00;96278.41;6155189;23;20076;-79
2022/09/24 17:07:43;;;;;;;6.93;6.22;;;;;;;15.59;75.03;96276.22;6160679;23;20349;-79
2022/09/24 17:10:12;;;;;;;8.43;6.60;;;;;;;15.57;75.23;96275.63;6165074;23;20021;-79
2022/09/24 17:12:41;;;;;;;20.25;14.65;;;;;;;15.57;75.49;96270.38;6161241;23;20037;-79
2022/09/24 17:15:09;;;;;;;13.70;10.40;;;;;;;15.58;74.92;96266.72;6163165;23;20022;-78
2022/09/24 17:17:37;;;;;;;7.90;7.10;;;;;;;15.60;74.86;96274.38;6168109;23;20330;-79
2022/09/24 17:20:18;;;;;;;7.32;6.53;;;;;;;15.59;74.72;96273.59;6169340;23;20040;-79
2022/09/24 17:22:53;;;;;;;8.73;6.45;;;;;;;15.58;75.16;96273.81;6145500;23;20041;-81
2022/09/24 17:25:21;;;;;;;6.55;5.13;;;;;;;15.59;74.75;96280.66;6168459;23;20044;-81
2022/09/24 17:27:49;;;;;;;6.63;5.72;;;;;;;15.59;74.81;96275.38;6160087;23;20454;-79
2022/09/24 17:30:16;;;;;;;6.13;5.45;;;;;;;15.60;74.85;96275.19;6160956;23;20032;-81
2022/09/24 17:32:44;;;;;;;5.97;5.40;;;;;;;15.60;74.80;96279.66;6161757;23;20086;-79
2022/09/24 17:35:12;;;;;;;6.60;6.00;;;;;;;15.59;74.70;96272.75;6169975;23;20017;-79
2022/09/24 17:37:41;;;;;;;5.72;5.05;;;;;;;15.58;74.83;96271.97;6169094;23;20024;-79
2022/09/24 17:40:09;;;;;;;5.80;5.28;;;;;;;15.57;74.79;96270.38;6166140;23;20017;-81
2022/09/24 17:42:37;;;;;;;6.93;5.93;;;;;;;15.57;74.80;96283.53;6164857;23;20358;-81
2022/09/24 17:45:06;;;;;;;6.00;5.40;;;;;;;15.57;75.09;96274.84;6161816;23;20022;-80
2022/09/24 17:50:15;;;;;;;8.43;7.57;;;;;;;15.52;75.11;96264.16;6157446;23;20022;-79
2022/09/24 17:52:44;;;;;;;8.55;7.68;;;;;;;15.47;75.02;96267.47;6158553;23;20053;-79
2022/09/24 17:55:11;;;;;;;7.70;6.97;;;;;;;15.43;75.32;96267.09;6163301;23;20080;-79
2022/09/24 17:57:39;;;;;;;7.95;6.50;;;;;;;15.43;75.51;96276.81;6168504;23;20017;-77
2022/09/24 18:00:08;;;;;;;7.18;6.50;;;;;;;15.38;75.30;96276.66;6163693;23;20033;-79
2022/09/24 18:02:35;;;;;;;6.68;6.00;;;;;;;15.33;75.52;96279.16;6163876;23;20025;-78
2022/09/24 18:05:03;;;;;;;7.07;6.47;;;;;;;15.28;75.69;96276.38;6155946;23;20378;-78
2022/09/24 18:07:30;;;;;;;6.95;6.00;;;;;;;15.23;75.58;96285.72;6156116;23;20030;-78
2022/09/24 18:10:01;;;;;;;5.50;5.00;;;;;;;15.21;76.42;96284.31;6161517;23;20033;-79
2022/09/24 18:18:01;;;;;;;7.38;6.68;;;;;;;15.12;76.24;96289.06;6208874;22;20016;-80
2022/09/24 18:20:30;;;;;;;8.98;6.90;;;;;;;15.12;76.12;96288.25;6207487;22;20012;-80
2022/09/24 18:22:58;;;;;;;7.82;6.95;;;;;;;15.11;76.29;96287.47;6196965;22;20337;-79
2022/09/24 18:25:27;;;;;;;9.70;7.57;;;;;;;15.11;76.26;96286.66;6196334;22;20025;-80
2022/09/24 18:27:59;;;;;;;9.00;7.07;;;;;;;15.11;75.64;96287.47;6187504;23;20076;-80
2022/09/24 18:30:27;;;;;;;8.63;6.25;;;;;;;15.06;75.61;96295.19;6187194;23;20017;-80
2022/09/24 18:32:54;;;;;;;6.28;5.65;;;;;;;14.99;75.99;96289.19;6187316;23;20020;-80
2022/09/24 18:35:22;;;;;;;7.38;6.68;;;;;;;14.96;76.20;96289.63;6187649;23;20036;-80
2022/09/24 18:37:49;;;;;;;10.98;7.65;;;;;;;14.93;76.17;96295.31;6186497;23;20025;-80
2022/09/24 18:40:17;;;;;;;8.10;7.28;;;;;;;14.91;76.25;96297.34;6188019;23;20373;-80
2022/09/24 18:42:46;;;;;;;9.00;7.45;;;;;;;14.90;76.54;96299.19;6189332;23;20081;-80
2022/09/24 18:45:13;;;;;;;10.98;8.45;;;;;;;14.94;76.64;96296.94;6193804;22;20024;-80
2022/09/24 18:47:41;;;;;;;9.18;7.07;;;;;;;14.97;76.69;96307.00;6193604;23;20025;-80
2022/09/24 18:50:09;;;;;;;8.52;7.30;;;;;;;15.00;76.90;96309.22;6191647;23;20020;-79
2022/09/24 18:52:36;;;;;;;9.57;8.23;;;;;;;15.03;76.36;96306.94;6191371;23;20071;-79
2022/09/24 18:55:05;;;;;;;8.85;7.22;;;;;;;15.03;76.06;96304.31;6194861;23;20028;-80
2022/09/24 18:57:33;;;;;;;8.45;7.18;;;;;;;15.04;75.90;96302.47;6194979;23;20031;-80
2022/09/24 19:00:02;;;;;;;9.85;7.43;;;;;;;15.00;75.98;96296.88;6190245;23;20290;-80
2022/09/24 19:02:30;;;;;;;8.80;7.22;;;;;;;14.98;75.94;96298.13;6196671;23;20461;-79